首页
METAR-TAF:

METAR-TAF

机场 :

阿尔伯特, 法国

纬度: 49-58-21N, 经度: 002-41-29E, 海拔: 111米

当前天气观测

该预报发布于33分钟前的23:30 UTC
静风
温度 7°C
湿度 87%
气压 1028 hPa
能見度: 7000

METAR: LFAQ 022330Z AUTO 00000KT 7000 NSC 07/05 Q1028

时间: 01:03 (00:03 UTC)

预报

该预报发布于10小时和3分钟前的14:00 UTC
预报有效从02日的 15点(UTC)到 02日的 24点(UTC)
风速5节,风向东南
能见度10公里或以上
1500米以下无云,无积雨云
几率 40%
从 02日的 21点(UTC)到 02日的 24点(UTC)
能見度: 3000
轻雾

TAF: LFAQ 021400Z 0215/0224 13005KT CAVOK PROB40 0221/0224 3000 BR

超过4000个机场的气象观测和天气预报(METAR&TAF报告)。

可查询的气象台以黄色和红色小点在地图上表示。

将鼠标移到小点上方,可查看气象台名称。

然后点击查看天气观测和预报。

如需切换地图:点击带黑十字的绿色按钮放大地图;点击带横线的绿色按钮缩小地图;或者点击绿色箭头查看邻近地区的地图。


METAR-TAF: